createdAt,value
2022-11-18T00:01:39.204Z,5.07
2022-11-18T00:04:01.769Z,4.37
2022-11-18T00:06:25.350Z,8.33
2022-11-18T00:08:47.735Z,7.30
2022-11-18T00:11:39.976Z,7.20
2022-11-18T00:14:19.950Z,6.07
2022-11-18T00:16:41.409Z,6.90
2022-11-18T00:19:02.864Z,7.40
2022-11-18T00:21:24.295Z,8.10
2022-11-18T00:23:48.315Z,8.47
2022-11-18T00:26:12.473Z,10.17
2022-11-18T00:28:35.114Z,9.57
2022-11-18T00:31:13.768Z,8.90
2022-11-18T00:33:36.917Z,7.27
2022-11-18T00:35:59.285Z,6.60
2022-11-18T00:38:20.783Z,7.47
2022-11-18T00:40:42.370Z,6.83
2022-11-18T00:43:03.813Z,9.10
2022-11-18T00:45:25.289Z,9.00
2022-11-18T00:47:47.162Z,7.30
2022-11-18T00:50:09.220Z,6.47
2022-11-18T00:52:30.647Z,8.27
2022-11-18T00:54:52.112Z,8.20
2022-11-18T00:57:13.537Z,7.67
2022-11-18T00:59:35.015Z,7.03
2022-11-18T01:01:56.534Z,6.67
2022-11-18T01:04:18.232Z,6.40
2022-11-18T01:06:39.679Z,6.13
2022-11-18T01:09:01.150Z,6.23
2022-11-18T01:11:41.109Z,7.30
2022-11-18T01:14:02.753Z,7.23
2022-11-18T01:16:26.493Z,7.17
2022-11-18T01:18:48.353Z,6.67
2022-11-18T01:21:09.778Z,6.90
2022-11-18T01:23:31.280Z,7.03
2022-11-18T01:25:52.779Z,6.77
2022-11-18T01:28:18.879Z,6.03
2022-11-18T01:30:45.682Z,6.53
2022-11-18T01:33:07.847Z,5.67
2022-11-18T01:35:34.054Z,6.23
2022-11-18T01:37:55.521Z,5.77
2022-11-18T01:40:17.060Z,7.17
2022-11-18T01:42:38.603Z,6.17
2022-11-18T01:45:14.239Z,5.53
2022-11-18T01:47:49.427Z,5.73
2022-11-18T01:50:13.190Z,5.50
2022-11-18T01:52:35.398Z,5.27
2022-11-18T01:55:03.906Z,12.03
2022-11-18T01:57:28.088Z,11.83
2022-11-18T01:59:53.120Z,8.83
2022-11-18T02:02:15.263Z,8.23
2022-11-18T02:04:38.916Z,7.03
2022-11-18T02:07:00.762Z,5.70
2022-11-18T02:09:22.860Z,5.30
2022-11-18T02:11:56.472Z,5.40
2022-11-18T02:14:22.799Z,5.83
2022-11-18T02:16:50.997Z,6.63
2022-11-18T02:19:42.900Z,7.10
2022-11-18T02:22:41.266Z,6.93
2022-11-18T02:25:21.357Z,4.97
2022-11-18T02:27:54.607Z,4.27
2022-11-18T02:30:18.738Z,4.80
2022-11-18T02:32:54.294Z,5.47
2022-11-18T02:35:39.460Z,5.23
2022-11-18T02:38:39.671Z,5.10
2022-11-18T02:41:23.965Z,4.93
2022-11-18T02:43:49.943Z,6.03
2022-11-18T02:46:16.639Z,5.87
2022-11-18T02:48:44.710Z,5.53
2022-11-18T02:51:09.645Z,6.00
2022-11-18T02:53:33.753Z,5.80
2022-11-18T02:55:55.659Z,5.40
2022-11-18T02:58:20.903Z,6.03
2022-11-18T03:00:42.411Z,4.90
2022-11-18T03:03:26.065Z,5.80
2022-11-18T03:06:06.647Z,5.03
2022-11-18T03:08:37.344Z,5.20
2022-11-18T03:11:10.374Z,5.60
2022-11-18T03:13:56.506Z,7.67
2022-11-18T03:16:24.633Z,8.23
2022-11-18T03:19:12.665Z,7.50
2022-11-18T03:22:00.838Z,7.57
2022-11-18T03:24:28.965Z,6.77
2022-11-18T03:27:03.123Z,6.70
2022-11-18T03:29:34.774Z,6.37
2022-11-18T03:32:03.339Z,6.50
2022-11-18T03:34:36.358Z,6.30
2022-11-18T03:37:01.968Z,5.80
2022-11-18T03:39:28.111Z,5.70
2022-11-18T03:41:54.845Z,5.83
2022-11-18T03:44:21.193Z,5.30
2022-11-18T03:46:49.091Z,5.80
2022-11-18T03:49:17.229Z,5.80
2022-11-18T03:51:44.691Z,5.70
2022-11-18T03:54:15.871Z,5.83
2022-11-18T03:56:43.689Z,5.77
2022-11-18T03:59:11.974Z,6.10
2022-11-18T04:01:40.665Z,5.27
2022-11-18T04:04:02.253Z,5.90
2022-11-18T04:06:49.633Z,5.80
2022-11-18T04:09:18.450Z,9.40
2022-11-18T04:12:03.312Z,10.10
2022-11-18T04:14:24.807Z,11.27
2022-11-18T04:16:51.283Z,11.00
2022-11-18T04:19:12.771Z,10.67
2022-11-18T04:21:34.224Z,7.83
2022-11-18T04:23:56.103Z,6.63
2022-11-18T04:26:18.419Z,9.63
2022-11-18T04:28:39.879Z,12.93
2022-11-18T04:31:01.308Z,12.03
2022-11-18T04:33:22.755Z,8.47
2022-11-18T04:35:46.777Z,7.10
2022-11-18T04:38:08.241Z,8.80
2022-11-18T04:40:29.684Z,8.27
2022-11-18T04:42:51.135Z,6.40
2022-11-18T04:45:12.844Z,6.90
2022-11-18T04:47:34.273Z,9.40
2022-11-18T04:49:55.709Z,10.30
2022-11-18T04:52:17.510Z,10.63
2022-11-18T04:54:38.978Z,11.27
2022-11-18T04:57:00.502Z,9.07
2022-11-18T04:59:24.752Z,7.83
2022-11-18T05:01:46.572Z,7.77
2022-11-18T05:04:08.343Z,7.20
2022-11-18T05:06:30.729Z,7.13
2022-11-18T05:08:52.253Z,6.77
2022-11-18T05:11:32.358Z,6.53
2022-11-18T05:13:54.173Z,6.93
2022-11-18T05:16:15.600Z,6.60
2022-11-18T05:18:37.090Z,6.83
2022-11-18T05:20:58.546Z,6.83
2022-11-18T05:23:19.985Z,9.20
2022-11-18T05:25:41.403Z,8.60
2022-11-18T05:28:03.055Z,7.77
2022-11-18T05:30:24.500Z,8.10
2022-11-18T05:32:45.923Z,9.50
2022-11-18T05:35:07.892Z,7.00
2022-11-18T05:37:32.983Z,6.47
2022-11-18T05:39:54.421Z,7.17
2022-11-18T05:42:34.155Z,7.33
2022-11-18T05:44:58.435Z,6.70
2022-11-18T05:47:20.520Z,7.13
2022-11-18T05:49:41.983Z,6.80
2022-11-18T05:52:03.684Z,8.37
2022-11-18T05:54:26.383Z,11.20
2022-11-18T05:56:47.868Z,10.70
2022-11-18T05:59:09.314Z,10.03
2022-11-18T06:01:37.564Z,10.77
2022-11-18T06:04:01.346Z,10.17
2022-11-18T06:06:24.708Z,11.07
2022-11-18T06:08:56.207Z,9.10
2022-11-18T06:11:20.049Z,9.63
2022-11-18T06:13:51.996Z,10.33
2022-11-18T06:16:13.519Z,9.10
2022-11-18T06:18:36.053Z,9.00
2022-11-18T06:21:03.522Z,9.03
2022-11-18T06:23:25.355Z,8.70
2022-11-18T06:25:47.721Z,9.53
2022-11-18T06:28:12.126Z,10.87
2022-11-18T06:30:33.590Z,10.67
2022-11-18T06:32:55.047Z,11.20
2022-11-18T06:35:16.877Z,10.97
2022-11-18T06:37:38.397Z,10.83
2022-11-18T06:40:00.039Z,8.87
2022-11-18T06:42:39.974Z,11.17
2022-11-18T06:45:02.312Z,10.57
2022-11-18T06:47:23.893Z,14.13
2022-11-18T06:49:45.350Z,12.47
2022-11-18T06:52:06.790Z,11.57
2022-11-18T06:54:28.241Z,10.80
2022-11-18T06:56:49.818Z,10.70
2022-11-18T06:59:11.279Z,13.00
2022-11-18T07:01:36.254Z,15.17
2022-11-18T07:03:59.617Z,13.50
2022-11-18T07:06:23.311Z,10.67
2022-11-18T07:08:46.111Z,10.30
2022-11-18T07:11:10.412Z,9.27
2022-11-18T07:13:39.130Z,12.70
2022-11-18T07:16:10.253Z,11.87
2022-11-18T07:18:39.624Z,13.57
2022-11-18T07:21:09.230Z,16.30
2022-11-18T07:23:32.327Z,17.33
2022-11-18T07:25:55.782Z,18.67
2022-11-18T07:28:17.243Z,16.20
2022-11-18T07:30:38.811Z,15.47
2022-11-18T07:33:00.311Z,12.13
2022-11-18T07:35:21.768Z,13.07
2022-11-18T07:37:43.221Z,11.73
2022-11-18T07:40:05.259Z,10.87
2022-11-18T07:42:26.838Z,13.50
2022-11-18T07:44:48.309Z,12.03
2022-11-18T07:47:09.761Z,11.87
2022-11-18T07:49:31.227Z,14.33
2022-11-18T07:51:52.738Z,18.80
2022-11-18T07:54:17.109Z,18.67
2022-11-18T07:56:39.311Z,28.00
2022-11-18T07:59:00.811Z,29.30
2022-11-18T08:01:30.884Z,77.60
2022-11-18T08:03:52.602Z,110.73
2022-11-18T08:06:16.929Z,80.13
2022-11-18T08:08:39.010Z,61.03
2022-11-18T08:11:02.321Z,50.60
2022-11-18T08:13:24.847Z,50.97
2022-11-18T08:15:46.323Z,53.67
2022-11-18T08:18:13.370Z,48.77
2022-11-18T08:20:35.999Z,31.40
2022-11-18T08:22:57.429Z,25.33
2022-11-18T08:25:18.954Z,20.17
2022-11-18T08:27:40.463Z,21.77
2022-11-18T08:30:01.909Z,22.20
2022-11-18T08:32:23.424Z,21.53
2022-11-18T08:34:44.867Z,26.40
2022-11-18T08:37:06.374Z,24.67
2022-11-18T08:39:27.845Z,25.93
2022-11-18T08:41:49.343Z,15.10
2022-11-18T08:44:13.975Z,12.97
2022-11-18T08:46:35.420Z,10.50
2022-11-18T08:48:57.371Z,15.73
2022-11-18T08:51:19.001Z,14.37
2022-11-18T08:53:41.398Z,16.90
2022-11-18T08:56:03.176Z,18.33
2022-11-18T08:58:25.714Z,17.00
2022-11-18T09:00:47.178Z,19.27
2022-11-18T09:03:08.623Z,19.87
2022-11-18T09:05:30.093Z,20.23
2022-11-18T09:07:51.530Z,21.70
2022-11-18T09:10:13.091Z,22.47
2022-11-18T09:12:34.604Z,18.97
2022-11-18T09:17:37.545Z,25.30
2022-11-18T09:19:59.038Z,31.77
2022-11-18T09:22:20.457Z,30.17
2022-11-18T09:24:43.462Z,29.23
2022-11-18T09:27:08.669Z,31.77
2022-11-18T09:29:33.742Z,30.57
2022-11-18T09:31:55.263Z,33.00
2022-11-18T09:34:17.001Z,29.97
2022-11-18T09:36:38.727Z,26.60
2022-11-18T09:39:00.194Z,23.47
2022-11-18T09:41:43.719Z,31.33
2022-11-18T09:44:13.665Z,25.60
2022-11-18T09:47:12.937Z,33.40
2022-11-18T09:49:37.502Z,38.53
2022-11-18T09:52:04.768Z,41.10
2022-11-18T09:54:31.701Z,28.50
2022-11-18T09:56:55.276Z,31.73
2022-11-18T09:59:20.346Z,34.70
2022-11-18T10:01:42.718Z,30.73
2022-11-18T10:04:04.387Z,27.33
2022-11-18T10:06:32.226Z,32.57
2022-11-18T10:08:53.707Z,29.07
2022-11-18T10:11:19.406Z,25.10
2022-11-18T10:13:51.407Z,21.17
2022-11-18T10:16:56.624Z,21.47
2022-11-18T10:19:29.483Z,19.67
2022-11-18T10:22:33.983Z,14.97
2022-11-18T10:24:57.891Z,13.00
2022-11-18T10:27:20.116Z,10.90
2022-11-18T10:29:42.895Z,9.00
2022-11-18T10:32:17.019Z,9.37
2022-11-18T10:34:50.688Z,9.13
2022-11-18T10:38:00.635Z,9.70
2022-11-18T10:40:28.069Z,7.40
2022-11-18T10:42:49.555Z,8.23
2022-11-18T10:45:27.057Z,7.70
2022-11-18T10:48:09.860Z,8.10
2022-11-18T10:50:34.519Z,6.43
2022-11-18T10:52:55.959Z,5.50
2022-11-18T10:55:20.052Z,5.80
2022-11-18T10:57:45.413Z,4.30
2022-11-18T11:00:45.542Z,3.87
2022-11-18T11:03:33.965Z,4.10
2022-11-18T11:06:13.838Z,4.17
2022-11-18T11:08:37.364Z,3.30
2022-11-18T11:10:59.647Z,3.73
2022-11-18T11:13:23.671Z,3.87
2022-11-18T11:15:48.310Z,4.00
2022-11-18T11:18:41.485Z,4.53
2022-11-18T11:21:02.946Z,5.10
2022-11-18T11:23:25.535Z,4.17
2022-11-18T11:29:05.241Z,4.60
2022-11-18T11:31:32.439Z,5.07
2022-11-18T11:34:11.785Z,5.20
2022-11-18T11:36:56.014Z,6.20
2022-11-18T11:39:20.667Z,8.90
2022-11-18T11:41:49.047Z,9.70
2022-11-18T11:44:22.603Z,10.10
2022-11-18T11:47:23.413Z,16.90
2022-11-18T11:50:00.878Z,11.00
2022-11-18T11:53:01.178Z,10.27
2022-11-18T11:55:32.889Z,8.67
2022-11-18T11:58:13.028Z,8.67
2022-11-18T12:00:41.762Z,8.37
2022-11-18T12:03:46.091Z,7.00
2022-11-18T12:06:12.575Z,6.97
2022-11-18T12:08:34.191Z,7.53
2022-11-18T12:11:21.267Z,8.40
2022-11-18T12:13:59.377Z,8.10
2022-11-18T12:16:42.227Z,8.43
2022-11-18T12:19:16.885Z,9.40
2022-11-18T12:21:47.413Z,8.37
2022-11-18T12:24:18.085Z,8.53
2022-11-18T12:26:39.650Z,8.37
2022-11-18T12:29:21.402Z,9.90
2022-11-18T12:31:43.000Z,10.57
2022-11-18T12:34:16.827Z,11.60
2022-11-18T12:36:40.314Z,13.00
2022-11-18T12:39:23.686Z,11.07
2022-11-18T12:42:03.454Z,12.17
2022-11-18T12:44:29.590Z,12.00
2022-11-18T12:46:53.229Z,11.17
2022-11-18T12:49:24.276Z,11.97
2022-11-18T12:51:46.299Z,11.00
2022-11-18T12:54:23.639Z,10.60
2022-11-18T12:56:48.373Z,9.17
2022-11-18T12:59:13.045Z,9.70
2022-11-18T13:01:35.451Z,9.57
2022-11-18T13:04:14.805Z,9.63
2022-11-18T13:06:39.061Z,9.07
2022-11-18T13:09:29.296Z,8.50
2022-11-18T13:11:54.631Z,7.60
2022-11-18T13:14:45.615Z,7.70
2022-11-18T13:17:45.577Z,7.80
2022-11-18T13:20:18.435Z,8.80
2022-11-18T13:23:08.702Z,9.10
2022-11-18T13:25:30.206Z,9.60
2022-11-18T13:28:04.407Z,9.20
2022-11-18T13:30:27.603Z,9.10
2022-11-18T13:32:50.158Z,9.90
2022-11-18T13:35:18.318Z,9.73
2022-11-18T13:37:51.224Z,9.27
2022-11-18T13:41:04.095Z,9.37
2022-11-18T13:43:26.824Z,9.00
2022-11-18T13:45:48.303Z,9.33
2022-11-18T13:48:14.346Z,9.60
2022-11-18T13:50:40.689Z,9.90
2022-11-18T13:53:20.752Z,9.13
2022-11-18T13:55:51.031Z,9.50
2022-11-18T13:58:18.670Z,9.77
2022-11-18T14:00:40.171Z,9.50
2022-11-18T14:03:15.507Z,8.87
2022-11-18T14:05:36.935Z,9.23
2022-11-18T14:08:18.291Z,8.70
2022-11-18T14:10:42.982Z,9.27
2022-11-18T14:13:17.166Z,9.27
2022-11-18T14:15:43.618Z,8.87
2022-11-18T14:18:19.084Z,9.57
2022-11-18T14:20:40.633Z,8.47
2022-11-18T14:23:05.509Z,8.33
2022-11-18T14:25:31.187Z,8.93
2022-11-18T14:27:54.537Z,11.33
2022-11-18T14:30:33.046Z,10.67
2022-11-18T14:33:12.918Z,8.93
2022-11-18T14:35:35.046Z,9.67
2022-11-18T14:38:22.338Z,10.50
2022-11-18T14:40:38.154Z,9.83
2022-11-18T14:43:01.839Z,10.83
2022-11-18T14:45:24.183Z,11.43
2022-11-18T14:47:45.662Z,10.97
2022-11-18T14:50:14.331Z,10.57
2022-11-18T14:52:35.766Z,9.73
2022-11-18T14:54:57.243Z,9.17
2022-11-18T14:57:19.062Z,9.90
2022-11-18T14:59:40.528Z,10.17
2022-11-18T15:02:02.134Z,9.77
2022-11-18T15:04:25.198Z,9.87
2022-11-18T15:06:46.649Z,10.40
2022-11-18T15:09:08.192Z,9.23
2022-11-18T15:11:29.695Z,9.03
2022-11-18T15:13:51.155Z,8.83
2022-11-18T15:16:24.718Z,8.97
2022-11-18T15:18:49.261Z,8.63
2022-11-18T15:21:11.046Z,8.50
2022-11-18T15:23:32.499Z,7.40
2022-11-18T15:25:53.958Z,8.80
2022-11-18T15:28:15.407Z,8.13
2022-11-18T15:30:36.851Z,8.23
2022-11-18T15:32:58.311Z,7.40
2022-11-18T15:35:19.821Z,7.47
2022-11-18T15:37:41.526Z,7.53
2022-11-18T15:40:04.333Z,6.60
2022-11-18T15:42:25.786Z,7.47
2022-11-18T15:44:47.238Z,5.67
2022-11-18T15:47:08.666Z,5.60
2022-11-18T15:49:30.185Z,6.03
2022-11-18T15:51:51.698Z,5.80
2022-11-18T15:54:13.234Z,7.13
2022-11-18T15:56:35.164Z,9.93
2022-11-18T15:59:11.276Z,8.53
2022-11-18T16:01:35.104Z,6.43
2022-11-18T16:03:56.852Z,6.77
2022-11-18T16:06:18.421Z,7.07
2022-11-18T16:08:39.871Z,7.27
2022-11-18T16:11:19.823Z,6.77
2022-11-18T16:13:41.658Z,7.03
2022-11-18T16:16:03.125Z,7.03
2022-11-18T16:18:24.567Z,7.60
2022-11-18T16:20:46.100Z,5.97
2022-11-18T16:23:07.874Z,5.67
2022-11-18T16:25:29.394Z,6.63
2022-11-18T16:27:50.828Z,11.07
2022-11-18T16:30:32.939Z,13.47
2022-11-18T16:32:54.371Z,21.20
2022-11-18T16:35:15.935Z,16.37
2022-11-18T16:37:37.362Z,10.17
2022-11-18T16:39:58.812Z,5.87
2022-11-18T16:42:20.259Z,29.20
2022-11-18T16:44:42.019Z,5.80
2022-11-18T16:47:07.680Z,5.53
2022-11-18T16:49:32.490Z,8.20
2022-11-18T16:51:55.517Z,6.13
2022-11-18T16:54:18.340Z,7.53
2022-11-18T16:56:40.597Z,6.03
2022-11-18T16:59:07.705Z,5.67
2022-11-18T17:01:30.279Z,8.27
2022-11-18T17:03:53.335Z,8.87
2022-11-18T17:06:14.797Z,5.10
2022-11-18T17:08:36.767Z,4.63
2022-11-18T17:10:58.189Z,6.87
2022-11-18T17:13:19.611Z,11.33
2022-11-18T17:15:41.033Z,4.60
2022-11-18T17:18:02.493Z,5.93
2022-11-18T17:20:23.935Z,6.73
2022-11-18T17:22:45.363Z,11.33
2022-11-18T17:25:07.190Z,8.83
2022-11-18T17:27:28.656Z,6.67
2022-11-18T17:29:50.915Z,7.00
2022-11-18T17:32:12.327Z,7.70
2022-11-18T17:34:33.880Z,5.27
2022-11-18T17:36:55.332Z,5.03
2022-11-18T17:39:18.040Z,5.87
2022-11-18T17:41:58.122Z,5.10
2022-11-18T17:44:19.720Z,7.03
2022-11-18T17:46:41.952Z,8.63
2022-11-18T17:49:05.580Z,9.07
2022-11-18T17:51:28.594Z,5.63
2022-11-18T17:53:50.832Z,5.77
2022-11-18T17:56:12.253Z,6.50
2022-11-18T17:58:33.705Z,5.13
2022-11-18T18:00:55.182Z,4.47
2022-11-18T18:03:16.625Z,4.20
2022-11-18T18:05:38.036Z,4.67
2022-11-18T18:07:59.718Z,5.00
2022-11-18T18:10:21.771Z,5.53
2022-11-18T18:13:02.307Z,5.23
2022-11-18T18:15:23.748Z,7.87
2022-11-18T18:17:47.282Z,7.60
2022-11-18T18:20:09.605Z,5.87
2022-11-18T18:22:31.261Z,6.63
2022-11-18T18:24:52.707Z,8.03
2022-11-18T18:27:14.133Z,7.03
2022-11-18T18:29:35.558Z,4.90
2022-11-18T18:31:56.999Z,5.50
2022-11-18T18:34:19.275Z,5.83
2022-11-18T18:36:40.878Z,5.03
2022-11-18T18:39:02.939Z,5.27
2022-11-18T18:41:24.584Z,5.63
2022-11-18T18:43:46.706Z,5.50
2022-11-18T18:46:31.412Z,5.63
2022-11-18T18:48:52.961Z,5.97
2022-11-18T18:51:14.452Z,8.07
2022-11-18T18:53:35.964Z,5.77
2022-11-18T18:55:57.756Z,5.67
2022-11-18T18:58:19.187Z,6.03
2022-11-18T19:00:40.657Z,6.43
2022-11-18T19:03:02.110Z,6.50
2022-11-18T19:05:39.085Z,7.03
2022-11-18T19:08:05.230Z,6.43
2022-11-18T19:10:26.729Z,6.37
2022-11-18T19:12:52.130Z,6.43
2022-11-18T19:15:14.480Z,8.17
2022-11-18T19:17:36.140Z,6.70
2022-11-18T19:20:16.132Z,6.90
2022-11-18T19:22:38.298Z,7.70
2022-11-18T19:25:01.443Z,7.43
2022-11-18T19:27:23.604Z,6.63
2022-11-18T19:29:45.262Z,5.90
2022-11-18T19:32:06.707Z,7.23
2022-11-18T19:34:28.172Z,6.60
2022-11-18T19:36:50.099Z,8.03
2022-11-18T19:39:11.578Z,8.27
2022-11-18T19:41:33.026Z,8.00
2022-11-18T19:43:54.496Z,8.90
2022-11-18T19:46:15.933Z,9.70
2022-11-18T19:48:37.591Z,9.70
2022-11-18T19:51:05.508Z,10.00
2022-11-18T19:53:32.610Z,10.43
2022-11-18T19:55:55.653Z,10.60
2022-11-18T19:58:17.126Z,9.80
2022-11-18T20:00:38.576Z,10.33
2022-11-18T20:03:00.010Z,10.27
2022-11-18T20:05:44.615Z,10.97
2022-11-18T20:08:08.520Z,10.87
2022-11-18T20:10:30.004Z,11.67
2022-11-18T20:12:52.645Z,11.37
2022-11-18T20:15:14.207Z,11.60
2022-11-18T20:17:35.642Z,12.13
2022-11-18T20:19:57.147Z,11.87
2022-11-18T20:22:18.623Z,11.87
2022-11-18T20:24:40.121Z,11.73
2022-11-18T20:27:01.641Z,11.80
2022-11-18T20:29:23.114Z,12.37
2022-11-18T20:31:44.573Z,12.00
2022-11-18T20:34:06.110Z,13.00
2022-11-18T20:36:33.140Z,11.83
2022-11-18T20:38:56.980Z,11.83
2022-11-18T20:41:20.210Z,11.97
2022-11-18T20:43:43.877Z,12.30
2022-11-18T20:46:07.614Z,13.97
2022-11-18T20:48:32.133Z,13.10
2022-11-18T20:50:53.831Z,12.27
2022-11-18T20:53:16.359Z,13.30
2022-11-18T20:55:38.152Z,12.47
2022-11-18T20:57:59.590Z,11.67
2022-11-18T21:00:21.058Z,12.27
2022-11-18T21:02:42.477Z,11.77
2022-11-18T21:05:04.288Z,10.97
2022-11-18T21:07:25.781Z,11.40
2022-11-18T21:09:47.853Z,11.93
2022-11-18T21:12:09.360Z,11.13
2022-11-18T21:14:30.838Z,11.03
2022-11-18T21:17:03.515Z,11.03
2022-11-18T21:19:26.397Z,11.03
2022-11-18T21:21:49.071Z,11.33
2022-11-18T21:24:19.993Z,11.10
2022-11-18T21:26:42.642Z,11.90
2022-11-18T21:29:07.388Z,13.33
2022-11-18T21:31:29.539Z,12.00
2022-11-18T21:33:52.674Z,12.50
2022-11-18T21:36:14.266Z,12.60
2022-11-18T21:38:35.712Z,12.40
2022-11-18T21:41:04.422Z,13.67
2022-11-18T21:44:03.502Z,12.50
2022-11-18T21:46:15.688Z,13.30
2022-11-18T21:48:37.674Z,13.23
2022-11-18T21:51:00.646Z,13.10
2022-11-18T21:53:22.086Z,13.37
2022-11-18T21:55:43.564Z,14.60
2022-11-18T21:58:04.992Z,13.90
2022-11-18T22:00:26.447Z,15.20
2022-11-18T22:02:47.912Z,15.63
2022-11-18T22:05:09.713Z,14.77
2022-11-18T22:07:31.183Z,16.10
2022-11-18T22:09:52.776Z,16.00
2022-11-18T22:12:14.311Z,15.93
2022-11-18T22:14:36.427Z,16.50
2022-11-18T22:16:57.937Z,16.47
2022-11-18T22:19:19.446Z,15.80
2022-11-18T22:21:41.075Z,16.00
2022-11-18T22:24:02.533Z,15.90
2022-11-18T22:26:24.072Z,17.13
2022-11-18T22:28:46.647Z,17.17
2022-11-18T22:31:16.155Z,18.20
2022-11-18T22:33:38.310Z,18.30
2022-11-18T22:36:04.734Z,18.17
2022-11-18T22:38:26.467Z,19.07
2022-11-18T22:40:47.901Z,18.10
2022-11-18T22:43:09.333Z,18.77
2022-11-18T22:45:30.796Z,17.83
2022-11-18T22:47:52.259Z,18.43
2022-11-18T22:50:14.583Z,18.03
2022-11-18T22:52:36.659Z,17.20
2022-11-18T22:54:58.109Z,16.50
2022-11-18T22:57:19.580Z,19.83
2022-11-18T22:59:41.032Z,19.07
2022-11-18T23:02:02.559Z,18.63
2022-11-18T23:04:23.992Z,18.10
2022-11-18T23:06:45.556Z,18.00
2022-11-18T23:09:07.002Z,18.30
2022-11-18T23:11:46.838Z,18.87
2022-11-18T23:14:09.988Z,18.80
2022-11-18T23:16:33.028Z,18.77
2022-11-18T23:18:54.487Z,19.07
2022-11-18T23:21:16.021Z,18.40
2022-11-18T23:23:37.474Z,19.47
2022-11-18T23:26:09.545Z,19.40
2022-11-18T23:28:31.171Z,18.87
2022-11-18T23:30:52.644Z,20.40
2022-11-18T23:33:14.120Z,19.77
2022-11-18T23:35:35.704Z,21.10
2022-11-18T23:37:57.131Z,20.80
2022-11-18T23:40:18.713Z,22.13
2022-11-18T23:42:40.138Z,22.47
2022-11-18T23:45:05.235Z,22.20
2022-11-18T23:47:27.195Z,21.70
2022-11-18T23:49:48.668Z,21.57
2022-11-18T23:52:10.683Z,20.80
2022-11-18T23:54:32.193Z,21.43
2022-11-18T23:56:53.810Z,20.87
2022-11-18T23:59:15.281Z,21.30
